sensor_id;sensor_type;location;lat;lon;timestamp;pressure;altitude;pressure_sealevel;temperature;humidity
42601;BME280;28229;48.856;9.088;2024-02-21T00:01:14;98954.03;;;4.96;99.46
42601;BME280;28229;48.856;9.088;2024-02-21T00:03:41;98954.53;;;5.00;99.30
42601;BME280;28229;48.856;9.088;2024-02-21T00:06:07;98955.03;;;5.03;99.23
42601;BME280;28229;48.856;9.088;2024-02-21T00:08:33;98951.56;;;4.94;99.56
42601;BME280;28229;48.856;9.088;2024-02-21T00:10:59;98953.81;;;4.89;99.78
42601;BME280;28229;48.856;9.088;2024-02-21T00:13:25;98953.22;;;4.95;99.22
42601;BME280;28229;48.856;9.088;2024-02-21T00:15:51;98957.28;;;4.98;98.97
42601;BME280;28229;48.856;9.088;2024-02-21T00:18:17;98948.50;;;4.99;99.01
42601;BME280;28229;48.856;9.088;2024-02-21T00:20:44;98948.38;;;5.09;98.55
42601;BME280;28229;48.856;9.088;2024-02-21T00:23:10;98938.25;;;5.06;98.66
42601;BME280;28229;48.856;9.088;2024-02-21T00:25:36;98935.03;;;5.12;98.79
42601;BME280;28229;48.856;9.088;2024-02-21T00:28:02;98922.78;;;5.12;98.71
42601;BME280;28229;48.856;9.088;2024-02-21T00:30:29;98920.34;;;5.11;98.93
42601;BME280;28229;48.856;9.088;2024-02-21T00:32:57;98921.97;;;5.12;99.28
42601;BME280;28229;48.856;9.088;2024-02-21T00:35:23;98915.41;;;5.08;99.47
42601;BME280;28229;48.856;9.088;2024-02-21T00:37:49;98916.88;;;5.02;99.64
42601;BME280;28229;48.856;9.088;2024-02-21T00:40:15;98907.44;;;5.09;99.42
42601;BME280;28229;48.856;9.088;2024-02-21T00:42:46;98903.06;;;5.10;99.33
42601;BME280;28229;48.856;9.088;2024-02-21T00:45:13;98908.28;;;5.18;98.97
42601;BME280;28229;48.856;9.088;2024-02-21T00:47:39;98911.53;;;5.12;98.99
42601;BME280;28229;48.856;9.088;2024-02-21T00:50:05;98906.44;;;5.02;99.61
42601;BME280;28229;48.856;9.088;2024-02-21T00:52:33;98906.13;;;5.05;99.57
42601;BME280;28229;48.856;9.088;2024-02-21T00:54:59;98901.25;;;5.10;99.59
42601;BME280;28229;48.856;9.088;2024-02-21T00:57:25;98902.72;;;5.13;99.63
42601;BME280;28229;48.856;9.088;2024-02-21T00:59:52;98891.94;;;5.08;99.70
42601;BME280;28229;48.856;9.088;2024-02-21T01:02:18;98895.84;;;5.04;100.00
42601;BME280;28229;48.856;9.088;2024-02-21T01:04:44;98888.53;;;5.07;100.00
42601;BME280;28229;48.856;9.088;2024-02-21T01:07:10;98882.19;;;5.10;99.94
42601;BME280;28229;48.856;9.088;2024-02-21T01:09:36;98876.31;;;5.08;100.00
42601;BME280;28229;48.856;9.088;2024-02-21T01:12:03;98875.34;;;5.09;99.46
42601;BME280;28229;48.856;9.088;2024-02-21T01:14:29;98864.91;;;5.09;99.01
42601;BME280;28229;48.856;9.088;2024-02-21T01:16:55;98863.59;;;5.05;98.72
42601;BME280;28229;48.856;9.088;2024-02-21T01:19:21;98853.16;;;5.05;98.55
42601;BME280;28229;48.856;9.088;2024-02-21T01:21:56;98860.00;;;5.06;98.28
42601;BME280;28229;48.856;9.088;2024-02-21T01:24:22;98852.50;;;5.11;97.56
42601;BME280;28229;48.856;9.088;2024-02-21T01:26:48;98846.66;;;5.09;96.91
42601;BME280;28229;48.856;9.088;2024-02-21T01:29:15;98845.03;;;5.16;96.03
42601;BME280;28229;48.856;9.088;2024-02-21T01:31:41;98839.81;;;5.16;95.72
42601;BME280;28229;48.856;9.088;2024-02-21T01:34:08;98838.03;;;5.25;94.42
42601;BME280;28229;48.856;9.088;2024-02-21T01:36:35;98829.41;;;5.24;93.92
42601;BME280;28229;48.856;9.088;2024-02-21T01:39:01;98830.25;;;5.33;93.43
42601;BME280;28229;48.856;9.088;2024-02-21T01:41:30;98828.59;;;5.32;93.15
42601;BME280;28229;48.856;9.088;2024-02-21T01:43:56;98824.84;;;5.34;93.31
42601;BME280;28229;48.856;9.088;2024-02-21T01:46:24;98821.06;;;5.29;93.73
42601;BME280;28229;48.856;9.088;2024-02-21T01:48:57;98818.97;;;5.41;93.25
42601;BME280;28229;48.856;9.088;2024-02-21T01:51:24;98814.41;;;5.43;93.00
42601;BME280;28229;48.856;9.088;2024-02-21T01:53:51;98815.72;;;5.39;93.06
42601;BME280;28229;48.856;9.088;2024-02-21T01:56:19;98816.34;;;5.49;92.35
42601;BME280;28229;48.856;9.088;2024-02-21T01:58:46;98808.38;;;5.42;92.42
42601;BME280;28229;48.856;9.088;2024-02-21T02:01:14;98802.03;;;5.53;92.00
42601;BME280;28229;48.856;9.088;2024-02-21T02:03:40;98802.31;;;5.42;92.66
42601;BME280;28229;48.856;9.088;2024-02-21T02:06:06;98794.19;;;5.45;92.41
42601;BME280;28229;48.856;9.088;2024-02-21T02:08:33;98794.50;;;5.50;92.23
42601;BME280;28229;48.856;9.088;2024-02-21T02:10:59;98790.25;;;5.49;92.17
42601;BME280;28229;48.856;9.088;2024-02-21T02:13:25;98784.88;;;5.50;91.96
42601;BME280;28229;48.856;9.088;2024-02-21T02:15:52;98790.94;;;5.51;91.84
42601;BME280;28229;48.856;9.088;2024-02-21T02:18:19;98783.75;;;5.53;91.18
42601;BME280;28229;48.856;9.088;2024-02-21T02:20:47;98777.22;;;5.57;91.09
42601;BME280;28229;48.856;9.088;2024-02-21T02:23:25;98771.34;;;5.55;90.87
42601;BME280;28229;48.856;9.088;2024-02-21T02:25:51;98764.50;;;5.62;90.77
42601;BME280;28229;48.856;9.088;2024-02-21T02:28:18;98758.78;;;5.67;90.46
42601;BME280;28229;48.856;9.088;2024-02-21T02:30:45;98756.34;;;5.65;90.80
42601;BME280;28229;48.856;9.088;2024-02-21T02:33:11;98752.41;;;5.61;90.53
42601;BME280;28229;48.856;9.088;2024-02-21T02:35:38;98747.88;;;5.55;91.25
42601;BME280;28229;48.856;9.088;2024-02-21T02:38:05;98741.66;;;5.48;92.15
42601;BME280;28229;48.856;9.088;2024-02-21T02:40:34;98738.25;;;5.47;92.26
42601;BME280;28229;48.856;9.088;2024-02-21T02:43:01;98736.78;;;5.53;92.10
42601;BME280;28229;48.856;9.088;2024-02-21T02:45:27;98720.63;;;5.49;92.43
42601;BME280;28229;48.856;9.088;2024-02-21T02:47:54;98729.28;;;5.58;92.71
42601;BME280;28229;48.856;9.088;2024-02-21T02:50:20;98726.34;;;5.53;92.70
42601;BME280;28229;48.856;9.088;2024-02-21T02:52:46;98718.34;;;5.55;93.33
42601;BME280;28229;48.856;9.088;2024-02-21T02:55:12;98724.06;;;5.58;92.88
42601;BME280;28229;48.856;9.088;2024-02-21T02:57:38;98723.06;;;5.67;93.40
42601;BME280;28229;48.856;9.088;2024-02-21T03:00:07;98732.19;;;5.63;94.92
42601;BME280;28229;48.856;9.088;2024-02-21T03:02:35;98735.09;;;5.68;96.08
42601;BME280;28229;48.856;9.088;2024-02-21T03:05:01;98743.44;;;5.64;97.21
42601;BME280;28229;48.856;9.088;2024-02-21T03:07:39;98744.56;;;5.61;97.39
42601;BME280;28229;48.856;9.088;2024-02-21T03:10:05;98734.31;;;5.60;97.69
42601;BME280;28229;48.856;9.088;2024-02-21T03:12:32;98729.75;;;5.62;97.87
42601;BME280;28229;48.856;9.088;2024-02-21T03:14:58;98726.97;;;5.63;98.33
42601;BME280;28229;48.856;9.088;2024-02-21T03:17:24;98718.78;;;5.66;97.75
42601;BME280;28229;48.856;9.088;2024-02-21T03:19:51;98720.13;;;5.62;97.44
42601;BME280;28229;48.856;9.088;2024-02-21T03:22:18;98719.78;;;5.65;96.86
42601;BME280;28229;48.856;9.088;2024-02-21T03:24:44;98712.28;;;5.62;97.12
42601;BME280;28229;48.856;9.088;2024-02-21T03:27:10;98710.31;;;5.64;97.24
42601;BME280;28229;48.856;9.088;2024-02-21T03:29:36;98692.41;;;5.45;97.07
42601;BME280;28229;48.856;9.088;2024-02-21T03:32:03;98689.16;;;5.43;97.31
42601;BME280;28229;48.856;9.088;2024-02-21T03:34:29;98694.06;;;5.46;96.41
42601;BME280;28229;48.856;9.088;2024-02-21T03:36:55;98698.91;;;5.49;96.03
42601;BME280;28229;48.856;9.088;2024-02-21T03:39:21;98692.88;;;5.48;95.70
42601;BME280;28229;48.856;9.088;2024-02-21T03:41:47;98695.34;;;5.50;95.73
42601;BME280;28229;48.856;9.088;2024-02-21T03:44:14;98697.47;;;5.55;95.74
42601;BME280;28229;48.856;9.088;2024-02-21T03:46:40;98693.06;;;5.55;95.65
42601;BME280;28229;48.856;9.088;2024-02-21T03:49:07;98697.31;;;5.48;95.79
42601;BME280;28229;48.856;9.088;2024-02-21T03:51:33;98685.91;;;5.41;95.38
42601;BME280;28229;48.856;9.088;2024-02-21T03:53:59;98678.06;;;5.41;95.61
42601;BME280;28229;48.856;9.088;2024-02-21T03:56:25;98672.22;;;5.39;95.92
42601;BME280;28229;48.856;9.088;2024-02-21T03:58:51;98674.31;;;5.43;95.96
42601;BME280;28229;48.856;9.088;2024-02-21T04:01:17;98675.13;;;5.36;96.08
42601;BME280;28229;48.856;9.088;2024-02-21T04:03:44;98685.56;;;5.36;96.22
42601;BME280;28229;48.856;9.088;2024-02-21T04:06:10;98673.84;;;5.31;96.60
42601;BME280;28229;48.856;9.088;2024-02-21T04:08:36;98668.78;;;5.30;96.59
42601;BME280;28229;48.856;9.088;2024-02-21T04:11:03;98668.31;;;5.26;96.00
42601;BME280;28229;48.856;9.088;2024-02-21T04:13:29;98652.97;;;5.23;96.01
42601;BME280;28229;48.856;9.088;2024-02-21T04:15:55;98643.03;;;5.27;96.21
42601;BME280;28229;48.856;9.088;2024-02-21T04:18:21;98633.06;;;5.22;96.40
42601;BME280;28229;48.856;9.088;2024-02-21T04:20:48;98629.00;;;5.20;96.27
42601;BME280;28229;48.856;9.088;2024-02-21T04:23:14;98631.66;;;5.03;97.39
42601;BME280;28229;48.856;9.088;2024-02-21T04:25:40;98643.84;;;5.11;96.61
42601;BME280;28229;48.856;9.088;2024-02-21T04:28:06;98660.50;;;5.10;96.02
42601;BME280;28229;48.856;9.088;2024-02-21T04:30:33;98660.50;;;5.10;95.63
42601;BME280;28229;48.856;9.088;2024-02-21T04:32:59;98650.06;;;5.10;95.76
42601;BME280;28229;48.856;9.088;2024-02-21T04:35:25;98634.75;;;5.07;95.95
42601;BME280;28229;48.856;9.088;2024-02-21T04:37:51;98643.53;;;5.06;96.38
42601;BME280;28229;48.856;9.088;2024-02-21T04:40:17;98644.53;;;5.05;96.57
42601;BME280;28229;48.856;9.088;2024-02-21T04:42:43;98643.53;;;5.06;96.72
42601;BME280;28229;48.856;9.088;2024-02-21T04:45:10;98649.25;;;5.01;97.09
42601;BME280;28229;48.856;9.088;2024-02-21T04:47:36;98651.88;;;5.01;97.16
42601;BME280;28229;48.856;9.088;2024-02-21T04:50:02;98645.19;;;4.90;97.23
42601;BME280;28229;48.856;9.088;2024-02-21T04:52:29;98641.09;;;4.96;96.29
42601;BME280;28229;48.856;9.088;2024-02-21T04:54:55;98641.59;;;4.91;96.33
42601;BME280;28229;48.856;9.088;2024-02-21T04:57:22;98643.84;;;4.86;96.75
42601;BME280;28229;48.856;9.088;2024-02-21T04:59:48;98646.13;;;4.65;97.54
42601;BME280;28229;48.856;9.088;2024-02-21T05:02:14;98646.78;;;4.58;97.64
42601;BME280;28229;48.856;9.088;2024-02-21T05:04:40;98644.81;;;4.52;98.20
42601;BME280;28229;48.856;9.088;2024-02-21T05:07:07;98637.19;;;4.59;97.65
42601;BME280;28229;48.856;9.088;2024-02-21T05:09:34;98635.03;;;4.54;97.67
42601;BME280;28229;48.856;9.088;2024-02-21T05:12:00;98628.19;;;4.45;98.08
42601;BME280;28229;48.856;9.088;2024-02-21T05:14:33;98626.56;;;4.44;98.11
42601;BME280;28229;48.856;9.088;2024-02-21T05:17:05;98634.88;;;4.39;97.98
42601;BME280;28229;48.856;9.088;2024-02-21T05:55:08;98572.19;;;4.57;93.20
42601;BME280;28229;48.856;9.088;2024-02-21T05:57:53;98577.41;;;4.49;93.35
42601;BME280;28229;48.856;9.088;2024-02-21T06:03:41;98571.53;;;4.55;92.77
42601;BME280;28229;48.856;9.088;2024-02-21T06:06:18;98573.66;;;4.60;92.75
42601;BME280;28229;48.856;9.088;2024-02-21T06:09:28;98576.44;;;4.42;93.42
42601;BME280;28229;48.856;9.088;2024-02-21T06:15:15;98562.09;;;4.46;93.06
42601;BME280;28229;48.856;9.088;2024-02-21T06:18:15;98562.72;;;4.40;93.44
42601;BME280;28229;48.856;9.088;2024-02-21T06:20:43;98564.03;;;4.77;100.00
42601;BME280;28229;48.856;9.088;2024-02-21T06:23:22;98573.13;;;5.06;100.00
42601;BME280;28229;48.856;9.088;2024-02-21T06:25:48;98566.41;;;5.28;100.00
42601;BME280;28229;48.856;9.088;2024-02-21T06:28:14;98584.44;;;5.46;100.00
42601;BME280;28229;48.856;9.088;2024-02-21T06:43:38;98572.06;;;5.40;91.03
42601;BME280;28229;48.856;9.088;2024-02-21T06:46:28;98572.13;;;5.15;91.93
42601;BME280;28229;48.856;9.088;2024-02-21T06:55:00;98546.75;;;4.92;93.15
42601;BME280;28229;48.856;9.088;2024-02-21T06:57:26;98556.69;;;4.89;91.51
42601;BME280;28229;48.856;9.088;2024-02-21T07:18:41;98539.59;;;4.62;92.41
42601;BME280;28229;48.856;9.088;2024-02-21T07:34:24;98530.09;;;5.10;89.42
42601;BME280;28229;48.856;9.088;2024-02-21T07:37:13;98529.72;;;5.21;88.85
42601;BME280;28229;48.856;9.088;2024-02-21T07:46:00;98524.91;;;5.49;87.69
42601;BME280;28229;48.856;9.088;2024-02-21T08:23:26;98510.28;;;6.64;77.78
42601;BME280;28229;48.856;9.088;2024-02-21T08:25:52;98510.91;;;6.66;77.89
42601;BME280;28229;48.856;9.088;2024-02-21T08:28:19;98495.84;;;6.68;78.07
42601;BME280;28229;48.856;9.088;2024-02-21T08:30:45;98498.84;;;6.80;77.82
42601;BME280;28229;48.856;9.088;2024-02-21T08:33:19;98491.81;;;6.80;77.66
42601;BME280;28229;48.856;9.088;2024-02-21T08:35:51;98484.63;;;6.97;77.74
42601;BME280;28229;48.856;9.088;2024-02-21T08:38:17;98472.16;;;6.99;78.95
42601;BME280;28229;48.856;9.088;2024-02-21T08:40:44;98469.25;;;7.09;77.86
42601;BME280;28229;48.856;9.088;2024-02-21T08:43:13;98466.56;;;7.17;76.75
42601;BME280;28229;48.856;9.088;2024-02-21T08:45:39;98471.97;;;7.16;76.39
42601;BME280;28229;48.856;9.088;2024-02-21T08:48:06;98462.31;;;7.16;77.68
42601;BME280;28229;48.856;9.088;2024-02-21T08:50:32;98471.44;;;7.20;76.58
42601;BME280;28229;48.856;9.088;2024-02-21T08:52:58;98469.09;;;7.26;77.33
42601;BME280;28229;48.856;9.088;2024-02-21T08:55:24;98465.19;;;7.36;77.95
42601;BME280;28229;48.856;9.088;2024-02-21T08:57:50;98464.63;;;7.41;77.00
42601;BME280;28229;48.856;9.088;2024-02-21T09:00:17;98453.44;;;7.47;76.48
42601;BME280;28229;48.856;9.088;2024-02-21T09:02:43;98452.31;;;7.56;76.08
42601;BME280;28229;48.856;9.088;2024-02-21T09:05:09;98450.22;;;7.67;76.72
42601;BME280;28229;48.856;9.088;2024-02-21T09:07:35;98454.00;;;7.64;75.84
42601;BME280;28229;48.856;9.088;2024-02-21T09:10:02;98451.38;;;7.79;75.58
42601;BME280;28229;48.856;9.088;2024-02-21T09:12:28;98447.72;;;7.80;74.92
42601;BME280;28229;48.856;9.088;2024-02-21T09:14:55;98448.34;;;7.82;75.51
42601;BME280;28229;48.856;9.088;2024-02-21T09:17:21;98446.56;;;7.82;75.85
42601;BME280;28229;48.856;9.088;2024-02-21T09:19:47;98446.25;;;7.92;75.23
42601;BME280;28229;48.856;9.088;2024-02-21T09:22:14;98444.16;;;7.88;74.23
42601;BME280;28229;48.856;9.088;2024-02-21T09:24:40;98434.34;;;7.90;74.05
42601;BME280;28229;48.856;9.088;2024-02-21T09:27:06;98431.75;;;7.96;73.96
42601;BME280;28229;48.856;9.088;2024-02-21T09:29:32;98421.97;;;8.05;73.38
42601;BME280;28229;48.856;9.088;2024-02-21T09:32:02;98432.50;;;8.12;73.97
42601;BME280;28229;48.856;9.088;2024-02-21T09:34:29;98419.97;;;8.35;74.40
42601;BME280;28229;48.856;9.088;2024-02-21T09:36:55;98426.59;;;8.53;75.80
42601;BME280;28229;48.856;9.088;2024-02-21T09:39:21;98420.19;;;8.62;74.09
42601;BME280;28229;48.856;9.088;2024-02-21T09:41:50;98423.41;;;8.57;71.02
42601;BME280;28229;48.856;9.088;2024-02-21T09:44:24;98416.56;;;8.63;71.39
42601;BME280;28229;48.856;9.088;2024-02-21T09:46:57;98410.72;;;8.61;71.17
42601;BME280;28229;48.856;9.088;2024-02-21T09:49:33;98413.34;;;8.61;72.23
42601;BME280;28229;48.856;9.088;2024-02-21T09:52:01;98416.94;;;8.60;71.40
42601;BME280;28229;48.856;9.088;2024-02-21T09:54:35;98411.16;;;8.71;70.62
42601;BME280;28229;48.856;9.088;2024-02-21T09:57:02;98406.94;;;8.70;69.38
42601;BME280;28229;48.856;9.088;2024-02-21T09:59:32;98407.06;;;8.97;70.03
42601;BME280;28229;48.856;9.088;2024-02-21T10:01:59;98397.03;;;9.14;69.69
42601;BME280;28229;48.856;9.088;2024-02-21T10:04:29;98406.13;;;9.11;68.57
42601;BME280;28229;48.856;9.088;2024-02-21T10:06:57;98403.72;;;9.17;67.87
42601;BME280;28229;48.856;9.088;2024-02-21T10:09:24;98395.66;;;9.25;66.68
42601;BME280;28229;48.856;9.088;2024-02-21T10:11:54;98390.69;;;9.43;68.95
42601;BME280;28229;48.856;9.088;2024-02-21T10:14:21;98392.72;;;9.55;65.74
42601;BME280;28229;48.856;9.088;2024-02-21T10:16:49;98391.91;;;9.67;66.82
42601;BME280;28229;48.856;9.088;2024-02-21T10:19:19;98381.00;;;9.64;63.71
42601;BME280;28229;48.856;9.088;2024-02-21T10:22:08;98376.56;;;9.58;65.72
42601;BME280;28229;48.856;9.088;2024-02-21T10:24:36;98368.47;;;9.66;66.53
42601;BME280;28229;48.856;9.088;2024-02-21T10:27:05;98383.41;;;9.59;64.75
42601;BME280;28229;48.856;9.088;2024-02-21T10:29:35;98367.25;;;9.48;64.32
42601;BME280;28229;48.856;9.088;2024-02-21T10:32:11;98369.47;;;9.45;64.32
42601;BME280;28229;48.856;9.088;2024-02-21T10:34:39;98357.56;;;9.56;64.80
42601;BME280;28229;48.856;9.088;2024-02-21T10:37:07;98360.19;;;9.69;64.21
42601;BME280;28229;48.856;9.088;2024-02-21T10:39:35;98365.06;;;9.85;63.98
42601;BME280;28229;48.856;9.088;2024-02-21T10:42:06;98356.38;;;9.91;64.61
42601;BME280;28229;48.856;9.088;2024-02-21T10:44:36;98351.94;;;10.05;63.29
42601;BME280;28229;48.856;9.088;2024-02-21T10:47:10;98344.84;;;10.13;63.11
42601;BME280;28229;48.856;9.088;2024-02-21T10:49:39;98344.00;;;10.25;63.40
42601;BME280;28229;48.856;9.088;2024-02-21T10:55:16;98336.56;;;10.02;62.05
42601;BME280;28229;48.856;9.088;2024-02-21T10:57:46;98328.84;;;10.14;63.14
42601;BME280;28229;48.856;9.088;2024-02-21T11:00:15;98322.78;;;10.20;62.90
42601;BME280;28229;48.856;9.088;2024-02-21T11:02:45;98319.72;;;10.30;62.44
42601;BME280;28229;48.856;9.088;2024-02-21T11:05:16;98314.28;;;10.32;60.89
42601;BME280;28229;48.856;9.088;2024-02-21T11:07:43;98306.97;;;10.47;61.33
42601;BME280;28229;48.856;9.088;2024-02-21T11:10:25;98298.44;;;10.58;62.13
42601;BME280;28229;48.856;9.088;2024-02-21T11:13:10;98293.75;;;10.60;61.31
42601;BME280;28229;48.856;9.088;2024-02-21T11:15:36;98288.25;;;10.75;60.77
42601;BME280;28229;48.856;9.088;2024-02-21T11:18:03;98286.53;;;10.94;60.10
42601;BME280;28229;48.856;9.088;2024-02-21T11:20:37;98277.03;;;10.93;59.46
42601;BME280;28229;48.856;9.088;2024-02-21T11:23:03;98279.56;;;11.07;59.20
42601;BME280;28229;48.856;9.088;2024-02-21T11:25:30;98266.41;;;11.07;58.65
42601;BME280;28229;48.856;9.088;2024-02-21T11:28:00;98265.00;;;11.11;59.66
42601;BME280;28229;48.856;9.088;2024-02-21T11:30:29;98259.06;;;11.15;58.09
42601;BME280;28229;48.856;9.088;2024-02-21T11:33:03;98252.69;;;11.30;58.40
42601;BME280;28229;48.856;9.088;2024-02-21T11:35:34;98250.59;;;11.38;59.06
42601;BME280;28229;48.856;9.088;2024-02-21T11:38:11;98244.53;;;11.38;58.15
42601;BME280;28229;48.856;9.088;2024-02-21T11:40:46;98234.31;;;11.48;57.55
42601;BME280;28229;48.856;9.088;2024-02-21T11:43:12;98227.59;;;11.52;58.01
42601;BME280;28229;48.856;9.088;2024-02-21T11:45:41;98223.09;;;11.34;57.97
42601;BME280;28229;48.856;9.088;2024-02-21T11:48:07;98219.31;;;11.49;58.19
42601;BME280;28229;48.856;9.088;2024-02-21T11:50:37;98223.28;;;11.58;57.43
42601;BME280;28229;48.856;9.088;2024-02-21T11:53:05;98215.69;;;11.68;57.61
42601;BME280;28229;48.856;9.088;2024-02-21T11:55:31;98208.44;;;11.63;57.35
42601;BME280;28229;48.856;9.088;2024-02-21T11:57:57;98212.25;;;11.68;56.84
42601;BME280;28229;48.856;9.088;2024-02-21T12:00:25;98206.34;;;11.47;57.16
42601;BME280;28229;48.856;9.088;2024-02-21T12:02:52;98196.09;;;11.64;57.04
42601;BME280;28229;48.856;9.088;2024-02-21T12:05:21;98194.03;;;11.66;57.61
42601;BME280;28229;48.856;9.088;2024-02-21T12:07:47;98191.25;;;11.61;57.88
42601;BME280;28229;48.856;9.088;2024-02-21T12:10:13;98186.56;;;11.63;57.10
42601;BME280;28229;48.856;9.088;2024-02-21T12:12:39;98175.00;;;11.64;57.11
42601;BME280;28229;48.856;9.088;2024-02-21T12:15:07;98169.72;;;11.64;56.97
42601;BME280;28229;48.856;9.088;2024-02-21T12:17:34;98166.06;;;11.65;55.57
42601;BME280;28229;48.856;9.088;2024-02-21T12:20:04;98154.66;;;11.71;56.56
42601;BME280;28229;48.856;9.088;2024-02-21T12:22:38;98152.84;;;11.90;56.91
42601;BME280;28229;48.856;9.088;2024-02-21T12:25:15;98150.69;;;11.80;55.47
42601;BME280;28229;48.856;9.088;2024-02-21T12:27:43;98139.91;;;11.63;56.25
42601;BME280;28229;48.856;9.088;2024-02-21T12:30:10;98134.72;;;11.75;56.63
42601;BME280;28229;48.856;9.088;2024-02-21T12:32:36;98123.44;;;11.87;56.65
42601;BME280;28229;48.856;9.088;2024-02-21T12:35:03;98128.03;;;11.98;56.15
42601;BME280;28229;48.856;9.088;2024-02-21T12:37:29;98114.16;;;11.84;56.66
42601;BME280;28229;48.856;9.088;2024-02-21T12:39:55;98111.97;;;11.81;56.04
42601;BME280;28229;48.856;9.088;2024-02-21T12:42:22;98105.47;;;11.84;55.98
42601;BME280;28229;48.856;9.088;2024-02-21T12:44:49;98106.94;;;11.98;55.98
42601;BME280;28229;48.856;9.088;2024-02-21T12:47:15;98106.31;;;12.14;55.65
42601;BME280;28229;48.856;9.088;2024-02-21T12:49:41;98096.84;;;12.25;54.73
42601;BME280;28229;48.856;9.088;2024-02-21T12:52:08;98085.50;;;12.36;54.44
42601;BME280;28229;48.856;9.088;2024-02-21T12:54:34;98073.53;;;12.52;54.26
42601;BME280;28229;48.856;9.088;2024-02-21T12:57:00;98070.00;;;12.59;53.98
42601;BME280;28229;48.856;9.088;2024-02-21T12:59:29;98069.50;;;12.50;54.67
42601;BME280;28229;48.856;9.088;2024-02-21T13:01:55;98063.34;;;12.68;54.50
42601;BME280;28229;48.856;9.088;2024-02-21T13:04:22;98067.56;;;12.69;53.96
42601;BME280;28229;48.856;9.088;2024-02-21T13:06:49;98051.31;;;12.84;53.42
42601;BME280;28229;48.856;9.088;2024-02-21T13:09:15;98049.56;;;12.66;53.56
42601;BME280;28229;48.856;9.088;2024-02-21T13:11:42;98039.47;;;12.86;53.90
42601;BME280;28229;48.856;9.088;2024-02-21T13:14:11;98045.69;;;13.04;53.38
42601;BME280;28229;48.856;9.088;2024-02-21T13:16:37;98028.91;;;13.10;53.76
42601;BME280;28229;48.856;9.088;2024-02-21T13:19:07;98026.50;;;13.20;53.12
42601;BME280;28229;48.856;9.088;2024-02-21T13:21:36;98016.03;;;13.25;54.09
42601;BME280;28229;48.856;9.088;2024-02-21T13:24:02;98023.72;;;13.27;53.62
42601;BME280;28229;48.856;9.088;2024-02-21T13:26:28;98015.69;;;13.22;53.13
42601;BME280;28229;48.856;9.088;2024-02-21T13:28:55;98000.28;;;13.30;53.00
42601;BME280;28229;48.856;9.088;2024-02-21T13:31:21;97995.59;;;13.32;52.96
42601;BME280;28229;48.856;9.088;2024-02-21T13:33:47;97984.00;;;13.22;53.09
42601;BME280;28229;48.856;9.088;2024-02-21T13:36:13;97981.38;;;13.33;52.79
42601;BME280;28229;48.856;9.088;2024-02-21T13:38:39;97970.31;;;13.37;49.56
42601;BME280;28229;48.856;9.088;2024-02-21T13:41:06;97972.47;;;13.28;49.97
42601;BME280;28229;48.856;9.088;2024-02-21T13:43:34;97975.84;;;13.23;50.35
42601;BME280;28229;48.856;9.088;2024-02-21T13:46:01;97962.97;;;13.15;48.90
42601;BME280;28229;48.856;9.088;2024-02-21T13:48:35;97959.44;;;13.09;48.92
42601;BME280;28229;48.856;9.088;2024-02-21T13:51:02;97954.25;;;13.14;51.00
42601;BME280;28229;48.856;9.088;2024-02-21T13:53:28;97958.19;;;13.12;52.73
42601;BME280;28229;48.856;9.088;2024-02-21T13:55:54;97960.94;;;12.93;53.40
42601;BME280;28229;48.856;9.088;2024-02-21T13:58:20;97948.00;;;12.80;53.69
42601;BME280;28229;48.856;9.088;2024-02-21T14:00:49;97945.56;;;12.90;54.58
42601;BME280;28229;48.856;9.088;2024-02-21T14:03:17;97944.09;;;12.94;54.45
42601;BME280;28229;48.856;9.088;2024-02-21T14:05:44;97944.66;;;12.97;54.04
42601;BME280;28229;48.856;9.088;2024-02-21T14:08:11;97930.09;;;12.82;53.80
42601;BME280;28229;48.856;9.088;2024-02-21T14:10:37;97930.91;;;12.71;54.19
42601;BME280;28229;48.856;9.088;2024-02-21T14:13:04;97931.72;;;12.71;53.33
42601;BME280;28229;48.856;9.088;2024-02-21T14:15:30;97932.16;;;12.80;54.28
42601;BME280;28229;48.856;9.088;2024-02-21T14:17:56;97929.97;;;12.65;54.58
42601;BME280;28229;48.856;9.088;2024-02-21T14:20:22;97929.41;;;12.63;54.83
42601;BME280;28229;48.856;9.088;2024-02-21T14:22:48;97936.53;;;12.63;55.19
42601;BME280;28229;48.856;9.088;2024-02-21T14:25:14;97920.38;;;12.71;55.21
42601;BME280;28229;48.856;9.088;2024-02-21T14:27:41;97916.22;;;12.75;54.66
42601;BME280;28229;48.856;9.088;2024-02-21T14:30:09;97909.78;;;12.83;54.00
42601;BME280;28229;48.856;9.088;2024-02-21T14:32:43;97905.72;;;12.92;54.71
42601;BME280;28229;48.856;9.088;2024-02-21T14:35:09;97896.69;;;12.88;54.46
42601;BME280;28229;48.856;9.088;2024-02-21T14:37:37;97894.03;;;12.88;54.82
42601;BME280;28229;48.856;9.088;2024-02-21T14:40:04;97896.91;;;12.86;55.20
42601;BME280;28229;48.856;9.088;2024-02-21T14:42:30;97892.09;;;12.83;54.81
42601;BME280;28229;48.856;9.088;2024-02-21T14:44:56;97881.19;;;12.80;54.51
42601;BME280;28229;48.856;9.088;2024-02-21T14:47:30;97876.56;;;12.87;55.36
42601;BME280;28229;48.856;9.088;2024-02-21T14:49:57;97884.16;;;12.83;55.35
42601;BME280;28229;48.856;9.088;2024-02-21T14:52:23;97870.78;;;12.73;53.92
42601;BME280;28229;48.856;9.088;2024-02-21T14:54:50;97861.00;;;12.85;56.63
42601;BME280;28229;48.856;9.088;2024-02-21T14:57:17;97869.59;;;12.92;59.17
42601;BME280;28229;48.856;9.088;2024-02-21T14:59:44;97860.06;;;12.91;57.94
42601;BME280;28229;48.856;9.088;2024-02-21T15:02:10;97863.25;;;12.93;59.46
42601;BME280;28229;48.856;9.088;2024-02-21T15:04:37;97866.34;;;12.90;57.71
42601;BME280;28229;48.856;9.088;2024-02-21T15:07:03;97862.13;;;12.89;58.58
42601;BME280;28229;48.856;9.088;2024-02-21T15:09:29;97861.06;;;12.90;58.30
42601;BME280;28229;48.856;9.088;2024-02-21T15:11:56;97842.19;;;12.82;58.28
42601;BME280;28229;48.856;9.088;2024-02-21T15:14:22;97833.78;;;12.85;58.36
42601;BME280;28229;48.856;9.088;2024-02-21T15:16:49;97839.28;;;12.83;56.31
42601;BME280;28229;48.856;9.088;2024-02-21T15:19:16;97823.38;;;12.78;56.56
42601;BME280;28229;48.856;9.088;2024-02-21T15:21:42;97818.53;;;12.75;57.29
42601;BME280;28229;48.856;9.088;2024-02-21T15:24:08;97800.63;;;12.77;58.35
42601;BME280;28229;48.856;9.088;2024-02-21T15:26:34;97805.91;;;12.77;58.28
42601;BME280;28229;48.856;9.088;2024-02-21T15:29:00;97796.97;;;12.78;58.09